X  ZamknijMetar - Lotnicze dane pogodowe     EPKT Katowice International Airport

Temperatura

10°C Temperatura

9°C Punkt rosy

94% Wilgotność



Wiatr

13 km/h

 8 MPH

 4 m/s

 7 KTS



210°
SSW
Obecne warunki

Mist Mist
Ciśnienie 1016.92 (hPa) - 30.03 (in)
Widoczność 2.4 (mi) - 3.8 (km)
Lotnisko
Kod lotniska EPKT

Lokalizacja Katowice International Airport 23 (km)

Metar:
EPKT 260200Z 21007KT 3800 BR NSC 10/09 Q1017

Czas: 26-05-2022 04:00